Atlantic, Iowa
Current Conditions -  °F | °C
As of 12:15 AM on Wednesday 26 Nov 2014 (Local Time) from KAIO Reporting Station
Overcast Overcast  
Wind Chill: 27°   Ceiling: 2500
Heat Index: 36°   Visibility: 10mi
Dew Point: 25°   Wind: 13mph
Humidity: 65%   Direction: 150°SSE
Pressure: 29.88"   Gusts: 20mph
Location:  41.4°N, 95.01°W
Report Text: KAIO 260615Z AUTO 15011G17KT 10SM FEW015 BKN025 OVC041 02/M04 A2988 RMK AO2
Loading
Personal Weather Stations






























Interactive Weather Map New forecast layout! Learn more

10-Day Weather Forecast

Advertisements
Track Severe Weather on mobile